sensor_id;sensor_type;location;lat;lon;timestamp;P1;durP1;ratioP1;P2;durP2;ratioP2
15669;SDS011;18524;45.190;5.732;2023-08-12T00:01:39;5.90;;;3.20;;
15669;SDS011;18524;45.190;5.732;2023-08-12T00:06:29;3.70;;;3.27;;
15669;SDS011;18524;45.190;5.732;2023-08-12T00:11:20;4.37;;;3.57;;
15669;SDS011;18524;45.190;5.732;2023-08-12T00:16:10;5.30;;;3.30;;
15669;SDS011;18524;45.190;5.732;2023-08-12T00:21:01;3.70;;;3.40;;
15669;SDS011;18524;45.190;5.732;2023-08-12T00:25:51;3.50;;;3.20;;
15669;SDS011;18524;45.190;5.732;2023-08-12T00:30:41;3.40;;;3.10;;
15669;SDS011;18524;45.190;5.732;2023-08-12T00:35:32;3.80;;;3.30;;
15669;SDS011;18524;45.190;5.732;2023-08-12T00:40:22;4.20;;;3.20;;
15669;SDS011;18524;45.190;5.732;2023-08-12T00:45:14;3.60;;;3.30;;
15669;SDS011;18524;45.190;5.732;2023-08-12T00:50:05;3.77;;;3.20;;
15669;SDS011;18524;45.190;5.732;2023-08-12T00:54:58;3.80;;;3.20;;
15669;SDS011;18524;45.190;5.732;2023-08-12T00:59:48;4.47;;;3.30;;
15669;SDS011;18524;45.190;5.732;2023-08-12T01:04:39;4.50;;;3.10;;
15669;SDS011;18524;45.190;5.732;2023-08-12T01:09:30;4.00;;;3.37;;
15669;SDS011;18524;45.190;5.732;2023-08-12T01:15:07;3.50;;;3.20;;
15669;SDS011;18524;45.190;5.732;2023-08-12T01:19:38;3.93;;;3.10;;
15669;SDS011;18524;45.190;5.732;2023-08-12T01:24:37;3.60;;;3.30;;
15669;SDS011;18524;45.190;5.732;2023-08-12T01:29:28;4.00;;;3.33;;
15669;SDS011;18524;45.190;5.732;2023-08-12T01:34:20;3.93;;;3.53;;
15669;SDS011;18524;45.190;5.732;2023-08-12T01:39:23;3.70;;;3.40;;
15669;SDS011;18524;45.190;5.732;2023-08-12T01:44:14;3.93;;;3.53;;
15669;SDS011;18524;45.190;5.732;2023-08-12T01:49:04;4.50;;;3.70;;
15669;SDS011;18524;45.190;5.732;2023-08-12T01:53:54;4.20;;;3.80;;
15669;SDS011;18524;45.190;5.732;2023-08-12T01:58:45;3.57;;;3.27;;
15669;SDS011;18524;45.190;5.732;2023-08-12T02:03:35;3.80;;;3.43;;
15669;SDS011;18524;45.190;5.732;2023-08-12T02:08:25;3.90;;;3.60;;
15669;SDS011;18524;45.190;5.732;2023-08-12T02:13:16;3.50;;;3.20;;
15669;SDS011;18524;45.190;5.732;2023-08-12T02:18:06;3.30;;;3.10;;
15669;SDS011;18524;45.190;5.732;2023-08-12T02:22:57;3.53;;;3.23;;
15669;SDS011;18524;45.190;5.732;2023-08-12T02:27:47;3.70;;;3.40;;
15669;SDS011;18524;45.190;5.732;2023-08-12T02:32:37;3.40;;;3.10;;
15669;SDS011;18524;45.190;5.732;2023-08-12T02:37:28;3.50;;;3.00;;
15669;SDS011;18524;45.190;5.732;2023-08-12T02:42:18;3.90;;;3.23;;
15669;SDS011;18524;45.190;5.732;2023-08-12T02:47:08;3.43;;;3.13;;
15669;SDS011;18524;45.190;5.732;2023-08-12T02:51:59;3.80;;;3.50;;
15669;SDS011;18524;45.190;5.732;2023-08-12T02:56:52;3.53;;;3.20;;
15669;SDS011;18524;45.190;5.732;2023-08-12T03:01:42;3.70;;;3.40;;
15669;SDS011;18524;45.190;5.732;2023-08-12T03:06:33;4.17;;;3.77;;
15669;SDS011;18524;45.190;5.732;2023-08-12T03:11:23;4.30;;;3.63;;
15669;SDS011;18524;45.190;5.732;2023-08-12T03:16:13;4.40;;;3.70;;
15669;SDS011;18524;45.190;5.732;2023-08-12T03:21:08;4.13;;;3.50;;
15669;SDS011;18524;45.190;5.732;2023-08-12T03:25:59;4.63;;;3.30;;
15669;SDS011;18524;45.190;5.732;2023-08-12T03:30:50;4.00;;;3.70;;
15669;SDS011;18524;45.190;5.732;2023-08-12T03:35:47;3.80;;;3.50;;
15669;SDS011;18524;45.190;5.732;2023-08-12T03:40:38;3.77;;;3.37;;
15669;SDS011;18524;45.190;5.732;2023-08-12T03:45:29;4.00;;;3.70;;
15669;SDS011;18524;45.190;5.732;2023-08-12T03:50:19;5.80;;;3.80;;
15669;SDS011;18524;45.190;5.732;2023-08-12T03:55:09;3.83;;;3.50;;
15669;SDS011;18524;45.190;5.732;2023-08-12T04:00:00;3.70;;;3.40;;
15669;SDS011;18524;45.190;5.732;2023-08-12T04:04:51;3.80;;;3.50;;
15669;SDS011;18524;45.190;5.732;2023-08-12T04:09:41;3.67;;;3.30;;
15669;SDS011;18524;45.190;5.732;2023-08-12T04:14:31;4.03;;;3.73;;
15669;SDS011;18524;45.190;5.732;2023-08-12T04:19:22;4.03;;;3.67;;
15669;SDS011;18524;45.190;5.732;2023-08-12T04:24:12;3.87;;;3.57;;
15669;SDS011;18524;45.190;5.732;2023-08-12T04:29:03;4.43;;;3.67;;
15669;SDS011;18524;45.190;5.732;2023-08-12T04:33:53;3.70;;;3.40;;
15669;SDS011;18524;45.190;5.732;2023-08-12T04:38:44;6.23;;;3.80;;
15669;SDS011;18524;45.190;5.732;2023-08-12T04:43:34;4.03;;;3.70;;
15669;SDS011;18524;45.190;5.732;2023-08-12T04:48:24;4.30;;;3.70;;
15669;SDS011;18524;45.190;5.732;2023-08-12T04:53:14;5.53;;;3.60;;
15669;SDS011;18524;45.190;5.732;2023-08-12T04:58:05;4.33;;;3.60;;
15669;SDS011;18524;45.190;5.732;2023-08-12T05:02:55;5.77;;;3.70;;
15669;SDS011;18524;45.190;5.732;2023-08-12T05:07:46;3.63;;;3.33;;
15669;SDS011;18524;45.190;5.732;2023-08-12T05:12:39;4.30;;;3.90;;
15669;SDS011;18524;45.190;5.732;2023-08-12T05:17:29;5.57;;;3.83;;
15669;SDS011;18524;45.190;5.732;2023-08-12T05:22:19;4.43;;;4.03;;
15669;SDS011;18524;45.190;5.732;2023-08-12T05:27:10;5.57;;;3.80;;
15669;SDS011;18524;45.190;5.732;2023-08-12T05:32:00;5.27;;;3.60;;
15669;SDS011;18524;45.190;5.732;2023-08-12T05:36:50;4.17;;;3.83;;
15669;SDS011;18524;45.190;5.732;2023-08-12T05:41:41;5.40;;;3.73;;
15669;SDS011;18524;45.190;5.732;2023-08-12T05:46:31;4.43;;;4.03;;
15669;SDS011;18524;45.190;5.732;2023-08-12T05:51:22;5.93;;;4.37;;
15669;SDS011;18524;45.190;5.732;2023-08-12T05:56:12;5.73;;;4.00;;
15669;SDS011;18524;45.190;5.732;2023-08-12T06:01:03;6.73;;;4.07;;
15669;SDS011;18524;45.190;5.732;2023-08-12T06:05:53;4.40;;;3.93;;
15669;SDS011;18524;45.190;5.732;2023-08-12T06:10:44;5.03;;;4.57;;
15669;SDS011;18524;45.190;5.732;2023-08-12T06:15:34;5.10;;;4.60;;
15669;SDS011;18524;45.190;5.732;2023-08-12T06:20:24;4.80;;;4.30;;
15669;SDS011;18524;45.190;5.732;2023-08-12T06:25:15;5.10;;;4.40;;
15669;SDS011;18524;45.190;5.732;2023-08-12T06:30:05;4.80;;;4.40;;
15669;SDS011;18524;45.190;5.732;2023-08-12T06:34:56;5.13;;;4.63;;
15669;SDS011;18524;45.190;5.732;2023-08-12T06:39:47;4.63;;;4.23;;
15669;SDS011;18524;45.190;5.732;2023-08-12T06:44:37;4.90;;;4.50;;
15669;SDS011;18524;45.190;5.732;2023-08-12T06:49:27;4.00;;;3.70;;
15669;SDS011;18524;45.190;5.732;2023-08-12T06:54:18;4.83;;;4.13;;
15669;SDS011;18524;45.190;5.732;2023-08-12T06:59:08;4.17;;;3.77;;
15669;SDS011;18524;45.190;5.732;2023-08-12T07:03:59;5.80;;;4.63;;
15669;SDS011;18524;45.190;5.732;2023-08-12T07:08:49;6.07;;;4.33;;
15669;SDS011;18524;45.190;5.732;2023-08-12T07:13:39;4.70;;;4.00;;
15669;SDS011;18524;45.190;5.732;2023-08-12T07:18:30;4.87;;;4.37;;
15669;SDS011;18524;45.190;5.732;2023-08-12T07:23:21;5.00;;;4.37;;
15669;SDS011;18524;45.190;5.732;2023-08-12T07:28:11;6.00;;;4.10;;
15669;SDS011;18524;45.190;5.732;2023-08-12T07:33:02;6.00;;;4.43;;
15669;SDS011;18524;45.190;5.732;2023-08-12T07:37:52;4.90;;;4.40;;
15669;SDS011;18524;45.190;5.732;2023-08-12T07:42:42;6.30;;;4.40;;
15669;SDS011;18524;45.190;5.732;2023-08-12T07:47:33;4.10;;;3.80;;
15669;SDS011;18524;45.190;5.732;2023-08-12T07:52:23;5.17;;;4.60;;
15669;SDS011;18524;45.190;5.732;2023-08-12T07:57:14;4.90;;;4.50;;
15669;SDS011;18524;45.190;5.732;2023-08-12T08:02:04;5.13;;;4.40;;
15669;SDS011;18524;45.190;5.732;2023-08-12T08:06:54;5.53;;;4.93;;
15669;SDS011;18524;45.190;5.732;2023-08-12T08:11:45;4.50;;;4.10;;
15669;SDS011;18524;45.190;5.732;2023-08-12T08:16:35;5.10;;;4.60;;
15669;SDS011;18524;45.190;5.732;2023-08-12T08:21:26;5.07;;;4.40;;
15669;SDS011;18524;45.190;5.732;2023-08-12T08:26:17;4.70;;;4.30;;
15669;SDS011;18524;45.190;5.732;2023-08-12T08:31:07;5.00;;;4.50;;
15669;SDS011;18524;45.190;5.732;2023-08-12T08:35:57;5.53;;;4.60;;
15669;SDS011;18524;45.190;5.732;2023-08-12T08:40:51;4.63;;;4.23;;
15669;SDS011;18524;45.190;5.732;2023-08-12T08:45:41;5.77;;;4.50;;
15669;SDS011;18524;45.190;5.732;2023-08-12T08:50:34;5.50;;;4.60;;
15669;SDS011;18524;45.190;5.732;2023-08-12T08:55:26;5.23;;;4.30;;
15669;SDS011;18524;45.190;5.732;2023-08-12T09:00:17;4.87;;;4.20;;
15669;SDS011;18524;45.190;5.732;2023-08-12T09:05:08;5.23;;;4.73;;
15669;SDS011;18524;45.190;5.732;2023-08-12T09:10:00;5.10;;;4.60;;
15669;SDS011;18524;45.190;5.732;2023-08-12T09:14:51;4.60;;;4.20;;
15669;SDS011;18524;45.190;5.732;2023-08-12T09:19:41;5.57;;;5.07;;
15669;SDS011;18524;45.190;5.732;2023-08-12T09:24:32;5.17;;;4.50;;
15669;SDS011;18524;45.190;5.732;2023-08-12T09:29:23;5.17;;;4.50;;
15669;SDS011;18524;45.190;5.732;2023-08-12T09:34:14;4.00;;;3.70;;
15669;SDS011;18524;45.190;5.732;2023-08-12T09:39:07;5.50;;;5.00;;
15669;SDS011;18524;45.190;5.732;2023-08-12T09:43:58;6.10;;;3.97;;
15669;SDS011;18524;45.190;5.732;2023-08-12T09:48:51;4.50;;;4.10;;
15669;SDS011;18524;45.190;5.732;2023-08-12T09:53:45;6.37;;;4.53;;
15669;SDS011;18524;45.190;5.732;2023-08-12T09:58:38;4.50;;;4.10;;
15669;SDS011;18524;45.190;5.732;2023-08-12T10:03:30;4.50;;;4.10;;
15669;SDS011;18524;45.190;5.732;2023-08-12T10:08:22;4.40;;;4.07;;
15669;SDS011;18524;45.190;5.732;2023-08-12T10:13:13;4.43;;;4.03;;
15669;SDS011;18524;45.190;5.732;2023-08-12T10:18:05;4.53;;;4.17;;
15669;SDS011;18524;45.190;5.732;2023-08-12T10:22:58;5.47;;;4.23;;
15669;SDS011;18524;45.190;5.732;2023-08-12T10:27:49;4.70;;;4.30;;
15669;SDS011;18524;45.190;5.732;2023-08-12T10:32:40;9.47;;;4.73;;
15669;SDS011;18524;45.190;5.732;2023-08-12T10:37:31;5.90;;;3.90;;
15669;SDS011;18524;45.190;5.732;2023-08-12T10:47:43;4.50;;;4.10;;
15669;SDS011;18524;45.190;5.732;2023-08-12T10:52:54;4.67;;;3.87;;
15669;SDS011;18524;45.190;5.732;2023-08-12T10:57:44;4.33;;;3.93;;
15669;SDS011;18524;45.190;5.732;2023-08-12T11:02:36;4.23;;;3.73;;
15669;SDS011;18524;45.190;5.732;2023-08-12T11:07:40;4.33;;;3.93;;
15669;SDS011;18524;45.190;5.732;2023-08-12T11:12:34;4.70;;;3.70;;
15669;SDS011;18524;45.190;5.732;2023-08-12T11:17:29;4.83;;;4.17;;
15669;SDS011;18524;45.190;5.732;2023-08-12T11:22:24;4.23;;;3.83;;
15669;SDS011;18524;45.190;5.732;2023-08-12T11:27:14;4.40;;;3.83;;
15669;SDS011;18524;45.190;5.732;2023-08-12T11:32:05;4.23;;;3.80;;
15669;SDS011;18524;45.190;5.732;2023-08-12T11:36:56;4.50;;;4.10;;
15669;SDS011;18524;45.190;5.732;2023-08-12T11:41:47;4.23;;;3.83;;
15669;SDS011;18524;45.190;5.732;2023-08-12T11:46:38;4.07;;;3.70;;
15669;SDS011;18524;45.190;5.732;2023-08-12T11:51:28;3.97;;;3.57;;
15669;SDS011;18524;45.190;5.732;2023-08-12T11:56:19;5.23;;;4.00;;
15669;SDS011;18524;45.190;5.732;2023-08-12T12:01:10;4.67;;;3.77;;
15669;SDS011;18524;45.190;5.732;2023-08-12T12:06:00;4.40;;;3.70;;
15669;SDS011;18524;45.190;5.732;2023-08-12T12:10:52;4.13;;;3.70;;
15669;SDS011;18524;45.190;5.732;2023-08-12T12:15:44;4.40;;;4.00;;
15669;SDS011;18524;45.190;5.732;2023-08-12T12:20:35;4.30;;;3.90;;
15669;SDS011;18524;45.190;5.732;2023-08-12T12:25:25;5.83;;;3.90;;
15669;SDS011;18524;45.190;5.732;2023-08-12T12:30:16;4.60;;;3.87;;
15669;SDS011;18524;45.190;5.732;2023-08-12T12:35:06;5.67;;;4.20;;
15669;SDS011;18524;45.190;5.732;2023-08-12T12:39:57;6.17;;;3.93;;
15669;SDS011;18524;45.190;5.732;2023-08-12T12:44:47;7.00;;;4.20;;
15669;SDS011;18524;45.190;5.732;2023-08-12T12:49:38;4.27;;;3.90;;
15669;SDS011;18524;45.190;5.732;2023-08-12T12:54:31;4.37;;;4.00;;
15669;SDS011;18524;45.190;5.732;2023-08-12T12:59:21;4.40;;;3.87;;
15669;SDS011;18524;45.190;5.732;2023-08-12T13:04:12;3.90;;;3.60;;
15669;SDS011;18524;45.190;5.732;2023-08-12T13:09:02;4.00;;;3.70;;
15669;SDS011;18524;45.190;5.732;2023-08-12T13:13:53;4.93;;;3.93;;
15669;SDS011;18524;45.190;5.732;2023-08-12T13:18:45;5.27;;;3.90;;
15669;SDS011;18524;45.190;5.732;2023-08-12T13:23:35;4.23;;;3.70;;
15669;SDS011;18524;45.190;5.732;2023-08-12T13:28:26;5.17;;;3.90;;
15669;SDS011;18524;45.190;5.732;2023-08-12T13:33:16;4.33;;;3.93;;
15669;SDS011;18524;45.190;5.732;2023-08-12T13:38:07;4.27;;;3.80;;
15669;SDS011;18524;45.190;5.732;2023-08-12T13:42:57;4.73;;;4.00;;
15669;SDS011;18524;45.190;5.732;2023-08-12T13:47:47;5.13;;;3.80;;
15669;SDS011;18524;45.190;5.732;2023-08-12T13:52:38;7.23;;;3.50;;
15669;SDS011;18524;45.190;5.732;2023-08-12T13:57:28;5.77;;;4.30;;
15669;SDS011;18524;45.190;5.732;2023-08-12T14:02:18;4.53;;;4.13;;
15669;SDS011;18524;45.190;5.732;2023-08-12T14:07:09;4.67;;;4.10;;
15669;SDS011;18524;45.190;5.732;2023-08-12T14:11:59;7.10;;;4.40;;
15669;SDS011;18524;45.190;5.732;2023-08-12T14:16:51;4.33;;;3.77;;
15669;SDS011;18524;45.190;5.732;2023-08-12T14:21:41;4.53;;;4.03;;
15669;SDS011;18524;45.190;5.732;2023-08-12T14:26:31;4.93;;;4.10;;
15669;SDS011;18524;45.190;5.732;2023-08-12T14:31:22;5.27;;;4.00;;
15669;SDS011;18524;45.190;5.732;2023-08-12T14:36:12;7.80;;;4.30;;
15669;SDS011;18524;45.190;5.732;2023-08-12T14:41:03;4.70;;;3.93;;
15669;SDS011;18524;45.190;5.732;2023-08-12T14:45:53;6.07;;;4.13;;
15669;SDS011;18524;45.190;5.732;2023-08-12T14:50:44;4.97;;;4.23;;
15669;SDS011;18524;45.190;5.732;2023-08-12T14:55:35;4.50;;;4.03;;
15669;SDS011;18524;45.190;5.732;2023-08-12T15:00:25;4.07;;;3.60;;
15669;SDS011;18524;45.190;5.732;2023-08-12T15:05:16;4.93;;;3.87;;
15669;SDS011;18524;45.190;5.732;2023-08-12T15:10:07;4.70;;;3.87;;
15669;SDS011;18524;45.190;5.732;2023-08-12T15:14:58;5.17;;;3.67;;
15669;SDS011;18524;45.190;5.732;2023-08-12T15:19:49;5.07;;;4.03;;
15669;SDS011;18524;45.190;5.732;2023-08-12T15:24:39;5.23;;;3.97;;
15669;SDS011;18524;45.190;5.732;2023-08-12T15:29:30;4.90;;;3.90;;
15669;SDS011;18524;45.190;5.732;2023-08-12T15:34:20;4.20;;;3.80;;
15669;SDS011;18524;45.190;5.732;2023-08-12T15:39:10;4.83;;;4.17;;
15669;SDS011;18524;45.190;5.732;2023-08-12T15:44:01;4.40;;;4.00;;
15669;SDS011;18524;45.190;5.732;2023-08-12T15:48:51;6.67;;;4.00;;
15669;SDS011;18524;45.190;5.732;2023-08-12T15:53:42;4.33;;;3.93;;
15669;SDS011;18524;45.190;5.732;2023-08-12T15:58:32;7.30;;;3.90;;
15669;SDS011;18524;45.190;5.732;2023-08-12T16:03:23;4.53;;;4.13;;
15669;SDS011;18524;45.190;5.732;2023-08-12T16:08:13;4.23;;;3.80;;
15669;SDS011;18524;45.190;5.732;2023-08-12T16:13:03;4.73;;;3.70;;
15669;SDS011;18524;45.190;5.732;2023-08-12T16:17:54;4.77;;;4.13;;
15669;SDS011;18524;45.190;5.732;2023-08-12T16:22:45;6.73;;;3.80;;
15669;SDS011;18524;45.190;5.732;2023-08-12T16:27:35;5.90;;;4.13;;
15669;SDS011;18524;45.190;5.732;2023-08-12T16:32:26;4.67;;;3.70;;
15669;SDS011;18524;45.190;5.732;2023-08-12T16:37:16;6.40;;;3.90;;
15669;SDS011;18524;45.190;5.732;2023-08-12T16:42:07;7.20;;;4.30;;
15669;SDS011;18524;45.190;5.732;2023-08-12T16:46:57;4.43;;;3.83;;
15669;SDS011;18524;45.190;5.732;2023-08-12T16:51:47;6.50;;;3.80;;
15669;SDS011;18524;45.190;5.732;2023-08-12T16:56:38;4.07;;;3.50;;
15669;SDS011;18524;45.190;5.732;2023-08-12T17:01:28;6.57;;;4.00;;
15669;SDS011;18524;45.190;5.732;2023-08-12T17:06:19;7.47;;;4.00;;
15669;SDS011;18524;45.190;5.732;2023-08-12T17:11:09;5.20;;;4.10;;
15669;SDS011;18524;45.190;5.732;2023-08-12T17:16:00;6.67;;;4.17;;
15669;SDS011;18524;45.190;5.732;2023-08-12T17:20:50;5.53;;;3.83;;
15669;SDS011;18524;45.190;5.732;2023-08-12T17:25:42;5.43;;;4.00;;
15669;SDS011;18524;45.190;5.732;2023-08-12T17:30:32;4.47;;;3.93;;
15669;SDS011;18524;45.190;5.732;2023-08-12T17:35:25;4.60;;;4.20;;
15669;SDS011;18524;45.190;5.732;2023-08-12T17:40:15;3.90;;;3.50;;
15669;SDS011;18524;45.190;5.732;2023-08-12T17:45:12;5.63;;;4.10;;
15669;SDS011;18524;45.190;5.732;2023-08-12T17:50:02;6.40;;;5.73;;
15669;SDS011;18524;45.190;5.732;2023-08-12T17:54:53;5.67;;;4.17;;
15669;SDS011;18524;45.190;5.732;2023-08-12T17:59:43;6.27;;;4.43;;
15669;SDS011;18524;45.190;5.732;2023-08-12T18:04:34;7.63;;;5.17;;
15669;SDS011;18524;45.190;5.732;2023-08-12T18:09:24;6.03;;;4.03;;
15669;SDS011;18524;45.190;5.732;2023-08-12T18:14:14;5.90;;;3.83;;
15669;SDS011;18524;45.190;5.732;2023-08-12T18:19:05;4.93;;;4.20;;
15669;SDS011;18524;45.190;5.732;2023-08-12T18:23:55;6.27;;;4.80;;
15669;SDS011;18524;45.190;5.732;2023-08-12T18:28:45;6.70;;;4.80;;
15669;SDS011;18524;45.190;5.732;2023-08-12T18:33:36;8.70;;;6.50;;
15669;SDS011;18524;45.190;5.732;2023-08-12T18:38:26;6.53;;;4.80;;
15669;SDS011;18524;45.190;5.732;2023-08-12T18:43:16;5.23;;;4.67;;
15669;SDS011;18524;45.190;5.732;2023-08-12T18:48:07;8.83;;;6.17;;
15669;SDS011;18524;45.190;5.732;2023-08-12T18:52:57;8.17;;;6.50;;
15669;SDS011;18524;45.190;5.732;2023-08-12T18:57:49;6.50;;;5.33;;
15669;SDS011;18524;45.190;5.732;2023-08-12T19:02:40;6.87;;;4.80;;
15669;SDS011;18524;45.190;5.732;2023-08-12T19:07:30;5.80;;;4.80;;
15669;SDS011;18524;45.190;5.732;2023-08-12T19:12:21;7.40;;;4.67;;
15669;SDS011;18524;45.190;5.732;2023-08-12T19:17:11;6.67;;;6.00;;
15669;SDS011;18524;45.190;5.732;2023-08-12T19:22:02;11.97;;;10.20;;
15669;SDS011;18524;45.190;5.732;2023-08-12T19:26:53;12.17;;;9.33;;
15669;SDS011;18524;45.190;5.732;2023-08-12T19:31:43;11.00;;;8.40;;
15669;SDS011;18524;45.190;5.732;2023-08-12T19:36:34;9.13;;;8.23;;
15669;SDS011;18524;45.190;5.732;2023-08-12T19:41:24;9.80;;;8.00;;
15669;SDS011;18524;45.190;5.732;2023-08-12T19:46:15;7.87;;;7.17;;
15669;SDS011;18524;45.190;5.732;2023-08-12T19:51:05;9.77;;;8.50;;
15669;SDS011;18524;45.190;5.732;2023-08-12T19:55:55;11.93;;;8.60;;
15669;SDS011;18524;45.190;5.732;2023-08-12T20:00:46;9.47;;;8.43;;
15669;SDS011;18524;45.190;5.732;2023-08-12T20:05:36;10.20;;;7.00;;
15669;SDS011;18524;45.190;5.732;2023-08-12T20:10:27;8.57;;;6.73;;
15669;SDS011;18524;45.190;5.732;2023-08-12T20:15:17;8.20;;;6.90;;
15669;SDS011;18524;45.190;5.732;2023-08-12T20:20:08;7.73;;;7.00;;
15669;SDS011;18524;45.190;5.732;2023-08-12T20:25:01;8.47;;;6.83;;
15669;SDS011;18524;45.190;5.732;2023-08-12T20:29:52;8.83;;;7.43;;
15669;SDS011;18524;45.190;5.732;2023-08-12T20:34:42;8.57;;;7.07;;
15669;SDS011;18524;45.190;5.732;2023-08-12T20:39:33;7.20;;;6.20;;
15669;SDS011;18524;45.190;5.732;2023-08-12T20:44:23;10.47;;;6.37;;
15669;SDS011;18524;45.190;5.732;2023-08-12T20:49:13;7.23;;;6.43;;
15669;SDS011;18524;45.190;5.732;2023-08-12T20:54:04;7.10;;;6.10;;
15669;SDS011;18524;45.190;5.732;2023-08-12T20:58:55;6.20;;;5.60;;
15669;SDS011;18524;45.190;5.732;2023-08-12T21:03:45;7.27;;;5.30;;
15669;SDS011;18524;45.190;5.732;2023-08-12T21:08:35;9.13;;;6.20;;
15669;SDS011;18524;45.190;5.732;2023-08-12T21:13:26;8.60;;;5.87;;
15669;SDS011;18524;45.190;5.732;2023-08-12T21:18:16;8.37;;;6.20;;
15669;SDS011;18524;45.190;5.732;2023-08-12T21:23:07;6.43;;;5.73;;
15669;SDS011;18524;45.190;5.732;2023-08-12T21:27:57;6.90;;;6.20;;
15669;SDS011;18524;45.190;5.732;2023-08-12T21:32:47;6.67;;;5.87;;
15669;SDS011;18524;45.190;5.732;2023-08-12T21:37:38;7.17;;;6.07;;
15669;SDS011;18524;45.190;5.732;2023-08-12T21:42:28;7.40;;;6.67;;
15669;SDS011;18524;45.190;5.732;2023-08-12T21:47:19;6.93;;;5.57;;
15669;SDS011;18524;45.190;5.732;2023-08-12T21:52:09;6.30;;;5.70;;
15669;SDS011;18524;45.190;5.732;2023-08-12T21:56:59;7.17;;;6.40;;
15669;SDS011;18524;45.190;5.732;2023-08-12T22:01:50;6.50;;;5.60;;
15669;SDS011;18524;45.190;5.732;2023-08-12T22:06:40;7.67;;;6.10;;
15669;SDS011;18524;45.190;5.732;2023-08-12T22:11:30;6.60;;;6.00;;
15669;SDS011;18524;45.190;5.732;2023-08-12T22:16:21;8.97;;;6.03;;
15669;SDS011;18524;45.190;5.732;2023-08-12T22:21:12;6.67;;;6.07;;
15669;SDS011;18524;45.190;5.732;2023-08-12T22:26:03;8.10;;;6.57;;
15669;SDS011;18524;45.190;5.732;2023-08-12T22:30:53;7.17;;;6.27;;
15669;SDS011;18524;45.190;5.732;2023-08-12T22:35:44;6.60;;;5.90;;
15669;SDS011;18524;45.190;5.732;2023-08-12T22:40:34;8.60;;;6.40;;
15669;SDS011;18524;45.190;5.732;2023-08-12T22:45:25;7.10;;;6.40;;
15669;SDS011;18524;45.190;5.732;2023-08-12T22:50:15;9.47;;;6.30;;
15669;SDS011;18524;45.190;5.732;2023-08-12T22:55:06;6.20;;;5.30;;
15669;SDS011;18524;45.190;5.732;2023-08-12T22:59:56;6.77;;;5.07;;
15669;SDS011;18524;45.190;5.732;2023-08-12T23:04:47;7.03;;;5.10;;
15669;SDS011;18524;45.190;5.732;2023-08-12T23:09:37;5.90;;;5.30;;
15669;SDS011;18524;45.190;5.732;2023-08-12T23:14:27;6.20;;;5.23;;
15669;SDS011;18524;45.190;5.732;2023-08-12T23:19:18;6.57;;;5.90;;
15669;SDS011;18524;45.190;5.732;2023-08-12T23:24:08;9.77;;;5.50;;
15669;SDS011;18524;45.190;5.732;2023-08-12T23:28:59;8.30;;;7.00;;
15669;SDS011;18524;45.190;5.732;2023-08-12T23:33:49;7.10;;;6.40;;
15669;SDS011;18524;45.190;5.732;2023-08-12T23:38:39;7.37;;;6.07;;
15669;SDS011;18524;45.190;5.732;2023-08-12T23:43:30;6.90;;;6.10;;
15669;SDS011;18524;45.190;5.732;2023-08-12T23:48:20;7.13;;;6.27;;
15669;SDS011;18524;45.190;5.732;2023-08-12T23:53:10;6.70;;;6.03;;
15669;SDS011;18524;45.190;5.732;2023-08-12T23:58:01;7.53;;;6.00;;
